Marlow, Georgia
Current Conditions -  °F | °C
As of 11:53 PM on Wednesday 22 Oct 2014 (Local Time) from KSAV Reporting Station
Clear Clear  
Wind Chill: 51°   Ceiling: Unl
Heat Index: 51°   Visibility: 10mi
Dew Point: 47°   Wind: 0mph
Humidity: 86%   Direction: NA
Pressure: 30.08"   Gusts: NA
Location:  32.3167°N, 81.3986°W
Report Text: KSAV 230353Z 00000KT 10SM CLR 11/08 A3008 RMK AO2 SLP184 LAST AUGMENTED OBSERVATION UNTIL 1000Z T01060083
Loading
Personal Weather Stations






























Interactive Weather Map New forecast layout! Learn more

10-Day Weather Forecast

Advertisements
Track Severe Weather on mobile